Latest Coastal Weather Observations for Aireys Inlet

IDV60701

Issued at 10:42 am EST Friday 22 September 2017 (issued every 10 minutes, with the page automatically refreshed every 10 minutes)

About coastal observations | Map of coastal stations | Coastal observations for VIC | Marine services | Other Formats
Station Details ID: 090180 Name: AIREYS INLET Lat: -38.46 Lon: 144.09 Height: 105.0 m
Data from the previous 72 hours. | See also: Recent months at Aireys Inlet
Date/Time
EST
Temp
°C
Wind Pressure Rain since
9am
mm
Weather Cloud Vis
km
Sea
Height
m
Swell
Dir  Spd
kts
Gust
kts
hPa Trend Height
m
Period
s
Dir
22/10:30am 15.8 ENE 6 10 - - 0.0 - - - - - - -
22/10:00am 16.1 NE 5 9 - - 0.0 - - - - - - -
22/09:30am 14.5 NNE 6 10 - - 0.0 - - - - - - -
22/09:00am 13.7 NNE 6 9 - - 0.0 - - - - - - -
22/08:30am 12.9 NNE 5 9 - - 0.0 - - - - - - -
22/08:00am 11.1 NNE 5 7 - - 0.0 - - - - - - -
22/07:30am 9.8 N 5 7 - - 0.0 - - - - - - -
22/07:00am 8.9 NW 4 6 - - 0.0 - - - - - - -
22/06:30am 9.0 NNW 4 6 - - 0.0 - - - - - - -
22/06:00am 8.7 N 4 5 - - 0.0 - - - - - - -
22/05:30am 8.4 N 6 8 - - 0.0 - - - - - - -
22/05:00am 8.9 NW 6 7 - - 0.0 - - - - - - -
22/04:30am 9.1 NW 4 5 - - 0.0 - - - - - - -
22/04:00am 8.8 N 4 5 - - 0.0 - - - - - - -
22/03:30am 9.6 N 4 5 - - 0.0 - - - - - - -
22/03:00am 9.7 N 3 4 - - 0.0 - - - - - - -
22/02:30am 9.9 NNW 3 3 - - 0.0 - - - - - - -
22/02:00am 10.0 N 2 3 - - 0.0 - - - - - - -
22/01:30am 9.9 NNW 3 4 - - 0.0 - - - - - - -
22/01:00am 10.0 N 4 6 - - 0.0 - - - - - - -
22/12:30am 10.1 N 4 5 - - 0.0 - - - - - - -
22/12:00am 10.4 NNW 3 3 - - 0.0 - - - - - - -
 
Date/Time
EST
Temp
°C
Wind Pressure Rain since
9am
mm
Weather Cloud Vis
km
Sea
Height
m
Swell
Dir  Spd
kts
Gust
kts
hPa Trend Height
m
Period
s
Dir
21/11:30pm 10.2 N 3 5 - - 0.0 - - - - - - -
21/11:00pm 10.4 N 5 6 - - 0.0 - - - - - - -
21/10:30pm 10.8 NNE 4 5 - - 0.0 - - - - - - -
21/10:00pm 11.3 W 2 3 - - 0.0 - - - - - - -
21/09:30pm 11.6 SW 5 8 - - 0.0 - - - - - - -
21/09:00pm 11.9 SW 7 13 - - 0.0 - - - - - - -
21/08:30pm 12.2 SW 8 13 - - 0.0 - - - - - - -
21/08:00pm 12.4 SW 9 16 - - 0.0 - - - - - - -
21/07:30pm 12.6 SW 11 18 - - 0.0 - - - - - - -
21/07:00pm 13.0 SW 11 17 - - 0.0 - - - - - - -
21/06:30pm 13.7 SW 9 15 - - 0.0 - - - - - - -
21/06:00pm 14.0 SW 4 7 - - 0.0 - - - - - - -
21/05:30pm 14.9 SW 7 12 - - 0.0 - - - - - - -
21/05:00pm 17.4 SW 7 10 - - 0.0 - - - - - - -
21/04:30pm 18.9 W 9 12 - - 0.0 - - - - - - -
21/04:00pm 19.4 WNW 11 16 - - 0.0 - - - - - - -
21/03:30pm 20.6 NW 11 19 - - 0.0 - - - - - - -
21/03:00pm 20.6 WNW 10 14 - - 0.0 - - - - - - -
21/02:43pm 19.7 WNW 15 27 - - 0.0 - - - - - - -
21/02:30pm 21.1 WNW 13 23 - - 0.0 - - - - - - -
21/02:00pm 21.6 WNW 13 22 - - 0.0 - - - - - - -
21/01:30pm 21.5 NW 12 21 - - 0.0 - - - - - - -
21/01:00pm 21.5 NW 12 24 - - 0.0 - - - - - - -
21/12:30pm 21.0 NNW 12 21 - - 0.0 - - - - - - -
21/12:10pm 20.2 NW 15 27 - - 0.0 - - - - - - -
21/12:00pm 20.4 NW 12 20 - - 0.0 - - - - - - -
21/11:33am 19.9 NNW 15 25 - - 0.0 - - - - - - -
21/11:30am 19.9 NW 13 25 - - 0.0 - - - - - - -
21/11:11am 19.2 NNW 14 29 - - 0.0 - - - - - - -
21/11:00am 18.7 N 13 20 - - 0.0 - - - - - - -
21/10:30am 17.3 N 13 28 - - 0.0 - - - - - - -
21/10:00am 16.6 NNW 21 38 - - 0.0 - - - - - - -
21/09:30am 15.8 NNW 20 35 - - 0.0 - - - - - - -
21/09:04am 14.5 NNW 15 28 - - 0.0 - - - - - - -
21/09:00am 14.4 NNW 14 24 - - 0.0 - - - - - - -
21/08:30am 14.1 NNW 17 26 - - 0.0 - - - - - - -
21/08:00am 14.1 NNW 18 31 - - 0.0 - - - - - - -
21/07:31am 14.1 NNW 15 28 - - 0.0 - - - - - - -
21/07:30am 14.0 N 14 23 - - 0.0 - - - - - - -
21/07:00am 13.3 N 12 19 - - 0.0 - - - - - - -
21/06:45am 13.3 N 15 25 - - 0.0 - - - - - - -
21/06:30am 12.4 N 10 18 - - 0.0 - - - - - - -
21/06:00am 10.5 NNE 6 11 - - 0.0 - - - - - - -
21/05:30am 10.2 NNE 6 9 - - 0.0 - - - - - - -
21/05:00am 11.1 NNE 5 9 - - 0.0 - - - - - - -
21/04:30am 11.6 N 5 8 - - 0.0 - - - - - - -
21/04:00am 12.5 N 5 8 - - 0.0 - - - - - - -
21/03:30am 12.4 N 6 8 - - 0.0 - - - - - - -
21/03:00am 12.8 N 7 11 - - 0.0 - - - - - - -
21/02:30am 12.8 N 9 12 - - 0.0 - - - - - - -
21/02:00am 12.9 N 11 15 - - 0.0 - - - - - - -
21/01:30am 13.5 N 9 12 - - 0.0 - - - - - - -
21/01:00am 13.8 N 9 16 - - 0.0 - - - - - - -
21/12:30am 14.0 N 9 13 - - 0.0 - - - - - - -
21/12:00am 14.1 NNW 10 16 - - 0.0 - - - - - - -
 
Date/Time
EST
Temp
°C
Wind Pressure Rain since
9am
mm
Weather Cloud Vis
km
Sea
Height
m
Swell
Dir  Spd
kts
Gust
kts
hPa Trend Height
m
Period
s
Dir
20/11:30pm 13.5 N 10 17 - - 0.0 - - - - - - -
20/11:00pm 11.4 NNE 9 11 - - 0.0 - - - - - - -
20/10:30pm 11.2 NNE 7 9 - - 0.0 - - - - - - -
20/10:00pm 12.5 ENE 6 7 - - 0.0 - - - - - - -
20/09:30pm 12.7 NNE 5 7 - - 0.0 - - - - - - -
20/09:00pm 13.6 NE 2 3 - - 0.0 - - - - - - -
20/08:30pm 13.7 NW 1 2 - - 0.0 - - - - - - -
20/08:00pm 13.4 NNE 5 7 - - 0.0 - - - - - - -
20/07:30pm 13.8 NNE 6 9 - - 0.0 - - - - - - -
20/07:00pm 14.8 N 3 7 - - 0.0 - - - - - - -
20/06:30pm 15.2 NNW 4 6 - - 0.0 - - - - - - -
20/06:00pm 15.6 N 4 9 - - 0.0 - - - - - - -
20/05:30pm 15.9 NNW 4 7 - - 0.0 - - - - - - -
20/05:00pm 16.7 WNW 7 11 - - 0.0 - - - - - - -
20/04:30pm 17.1 NW 8 13 - - 0.0 - - - - - - -
20/04:00pm 16.8 NW 11 22 - - 0.0 - - - - - - -
20/03:30pm 16.4 N 10 17 - - 0.0 - - - - - - -
20/03:00pm 16.1 NNW 6 11 - - 0.0 - - - - - - -
20/02:30pm 15.8 WNW 6 14 - - 0.0 - - - - - - -
20/02:00pm 15.6 NW 6 16 - - 0.0 - - - - - - -
20/01:30pm 16.5 NNW 16 23 - - 0.0 - - - - - - -
20/01:00pm 16.0 NW 19 29 - - 0.0 - - - - - - -
20/12:48pm 15.9 NNW 15 26 - - 0.0 - - - - - - -
20/12:30pm 15.9 NW 12 22 - - 0.0 - - - - - - -
20/12:00pm 15.1 NNW 11 16 - - 0.0 - - - - - - -
20/11:30am 14.2 NW 11 19 - - 0.0 - - - - - - -
20/11:00am 13.4 NW 11 18 - - 0.0 - - - - - - -
20/10:30am 13.1 NW 10 20 - - 0.0 - - - - - - -
20/10:00am 11.8 NW 12 19 - - 0.0 - - - - - - -
20/09:30am 11.0 NNW 9 16 - - 0.0 - - - - - - -
20/09:00am 9.4 N 6 9 - - 0.2 - - - - - - -
20/08:30am 9.1 NNE 5 8 - - 0.2 - - - - - - -
20/08:00am 8.5 N 6 13 - - 0.2 - - - - - - -
20/07:30am 7.0 NNW 8 12 - - 0.2 - - - - - - -
20/07:00am 6.2 NNW 7 10 - - 0.2 - - - - - - -
20/06:30am 6.4 NNW 9 12 - - 0.2 - - - - - - -
20/06:00am 5.5 NNW 7 9 - - 0.2 - - - - - - -
20/05:30am 5.5 NW 8 9 - - 0.2 - - - - - - -
20/05:00am 5.8 NNW 7 8 - - 0.2 - - - - - - -
20/04:30am 6.3 NW 9 10 - - 0.2 - - - - - - -
20/04:00am 6.7 NW 8 10 - - 0.2 - - - - - - -
20/03:30am 7.1 NW 8 9 - - 0.2 - - - - - - -
20/03:00am 6.9 NW 8 10 - - 0.2 - - - - - - -
20/02:30am 7.0 NW 7 9 - - 0.2 - - - - - - -
20/02:00am 7.2 NW 7 9 - - 0.2 - - - - - - -
20/01:30am 7.2 NW 8 10 - - 0.2 - - - - - - -
20/01:00am 7.2 NW 7 9 - - 0.2 - - - - - - -
20/12:30am 7.0 NW 8 10 - - 0.2 - - - - - - -
20/12:00am 7.0 NW 9 10 - - 0.2 - - - - - - -
 
Date/Time
EST
Temp
°C
Wind Pressure Rain since
9am
mm
Weather Cloud Vis
km
Sea
Height
m
Swell
Dir  Spd
kts
Gust
kts
hPa Trend Height
m
Period
s
Dir
19/11:30pm 6.6 NW 9 10 - - 0.2 - - - - - - -
19/11:00pm 6.5 NW 8 10 - - 0.2 - - - - - - -
19/10:30pm 7.0 NW 8 10 - - 0.2 - - - - - - -
19/10:00pm 7.1 NW 7 9 - - 0.2 - - - - - - -
19/09:30pm 8.6 W 8 10 - - 0.2 - - - - - - -
19/09:00pm 8.8 W 7 9 - - 0.2 - - - - - - -
19/08:30pm 9.3 WNW 8 13 - - 0.2 - - - - - - -
19/08:00pm 9.2 WNW 11 15 - - 0.2 - - - - - - -
19/07:30pm 9.0 W 6 9 - - 0.2 - - - - - - -
19/07:00pm 9.6 WSW 8 10 - - 0.2 - - - - - - -
19/06:30pm 10.4 W 9 13 - - 0.2 - - - - - - -
19/06:00pm 10.6 W 7 11 - - 0.2 - - - - - - -
19/05:30pm 10.7 W 9 12 - - 0.2 - - - - - - -
19/05:00pm 10.9 W 11 18 - - 0.2 - - - - - - -
19/04:30pm 11.1 W 13 24 - - 0.2 - - - - - - -
19/04:22pm 10.9 W 15 24 - - 0.2 - - - - - - -
19/04:00pm 12.0 W 10 14 - - 0.2 - - - - - - -
19/03:30pm 13.6 WSW 9 13 - - 0.2 - - - - - - -
19/03:00pm 12.4 SSW 4 7 - - 0.2 - - - - - - -
19/02:30pm 11.5 SSW 9 15 - - 0.2 - - - - - - -
19/02:00pm 13.1 WSW 10 15 - - 0.2 - - - - - - -
19/01:30pm 11.4 SSW 11 18 - - 0.2 - - - - - - -
19/01:00pm 13.5 SW 9 15 - - 0.2 - - - - - - -
19/12:30pm 10.7 SW 15 22 - - 0.2 - - - - - - -
19/12:00pm 11.2 SW 14 21 - - 0.2 - - - - - - -
19/11:30am 11.3 WSW 11 18 - - 0.2 - - - - - - -
19/11:00am 11.0 WSW 10 15 - - 0.2 - - - - - - -

Other Formats:

Comma delimited format used in spreadsheet applications
http://www.bom.gov.au/fwo/IDV60701/IDV60701.94846.axf

JavaScript Object Notation format (JSON) in row-major order
http://www.bom.gov.au/fwo/IDV60701/IDV60701.94846.json